sensor_id;sensor_type;location;lat;lon;timestamp;P1;durP1;ratioP1;P2;durP2;ratioP2
29358;SDS011;16347;53.232;6.556;2023-04-01T00:00:52;3.92;;;3.53;;
29358;SDS011;16347;53.232;6.556;2023-04-01T00:03:21;6.38;;;4.70;;
29358;SDS011;16347;53.232;6.556;2023-04-01T00:05:50;5.72;;;4.40;;
29358;SDS011;16347;53.232;6.556;2023-04-01T00:08:19;6.18;;;4.50;;
29358;SDS011;16347;53.232;6.556;2023-04-01T00:10:47;8.93;;;4.85;;
29358;SDS011;16347;53.232;6.556;2023-04-01T00:13:15;5.82;;;4.72;;
29358;SDS011;16347;53.232;6.556;2023-04-01T00:15:45;7.22;;;4.85;;
29358;SDS011;16347;53.232;6.556;2023-04-01T00:18:13;5.88;;;4.30;;
29358;SDS011;16347;53.232;6.556;2023-04-01T00:20:43;7.35;;;4.85;;
29358;SDS011;16347;53.232;6.556;2023-04-01T00:23:13;6.65;;;4.72;;
29358;SDS011;16347;53.232;6.556;2023-04-01T00:25:42;6.53;;;5.03;;
29358;SDS011;16347;53.232;6.556;2023-04-01T00:28:12;6.22;;;4.57;;
29358;SDS011;16347;53.232;6.556;2023-04-01T00:30:40;6.65;;;4.72;;
29358;SDS011;16347;53.232;6.556;2023-04-01T00:33:10;7.60;;;4.93;;
29358;SDS011;16347;53.232;6.556;2023-04-01T00:35:38;5.82;;;4.45;;
29358;SDS011;16347;53.232;6.556;2023-04-01T00:38:07;7.38;;;4.95;;
29358;SDS011;16347;53.232;6.556;2023-04-01T00:40:35;8.05;;;5.32;;
29358;SDS011;16347;53.232;6.556;2023-04-01T00:43:09;7.25;;;5.00;;
29358;SDS011;16347;53.232;6.556;2023-04-01T00:45:40;8.68;;;5.47;;
29358;SDS011;16347;53.232;6.556;2023-04-01T00:48:13;8.60;;;5.22;;
29358;SDS011;16347;53.232;6.556;2023-04-01T00:50:46;7.78;;;5.10;;
29358;SDS011;16347;53.232;6.556;2023-04-01T00:53:18;6.15;;;5.13;;
29358;SDS011;16347;53.232;6.556;2023-04-01T00:55:49;10.07;;;5.50;;
29358;SDS011;16347;53.232;6.556;2023-04-01T01:00:51;8.38;;;4.60;;
29358;SDS011;16347;53.232;6.556;2023-04-01T01:03:21;8.23;;;5.07;;
29358;SDS011;16347;53.232;6.556;2023-04-01T01:05:54;7.70;;;4.97;;
29358;SDS011;16347;53.232;6.556;2023-04-01T01:08:35;9.48;;;5.70;;
29358;SDS011;16347;53.232;6.556;2023-04-01T01:11:18;10.38;;;6.25;;
29358;SDS011;16347;53.232;6.556;2023-04-01T01:14:11;10.60;;;5.97;;
29358;SDS011;16347;53.232;6.556;2023-04-01T01:16:53;6.90;;;5.20;;
29358;SDS011;16347;53.232;6.556;2023-04-01T01:19:33;8.45;;;5.47;;
29358;SDS011;16347;53.232;6.556;2023-04-01T01:22:28;6.85;;;4.72;;
29358;SDS011;16347;53.232;6.556;2023-04-01T01:25:16;8.80;;;5.15;;
29358;SDS011;16347;53.232;6.556;2023-04-01T01:27:54;7.78;;;5.65;;
29358;SDS011;16347;53.232;6.556;2023-04-01T01:30:39;8.13;;;5.40;;
29358;SDS011;16347;53.232;6.556;2023-04-01T01:33:19;6.45;;;4.90;;
29358;SDS011;16347;53.232;6.556;2023-04-01T01:36:01;8.13;;;5.82;;
29358;SDS011;16347;53.232;6.556;2023-04-01T01:38:33;7.95;;;5.85;;
29358;SDS011;16347;53.232;6.556;2023-04-01T01:41:04;7.85;;;5.65;;
29358;SDS011;16347;53.232;6.556;2023-04-01T01:43:35;7.32;;;5.63;;
29358;SDS011;16347;53.232;6.556;2023-04-01T01:46:08;9.80;;;6.75;;
29358;SDS011;16347;53.232;6.556;2023-04-01T01:48:41;8.20;;;5.78;;
29358;SDS011;16347;53.232;6.556;2023-04-01T01:51:14;9.38;;;6.05;;
29358;SDS011;16347;53.232;6.556;2023-04-01T01:53:42;10.90;;;7.03;;
29358;SDS011;16347;53.232;6.556;2023-04-01T01:56:10;8.15;;;6.38;;
29358;SDS011;16347;53.232;6.556;2023-04-01T01:58:42;11.10;;;6.03;;
29358;SDS011;16347;53.232;6.556;2023-04-01T02:01:19;10.13;;;6.47;;
29358;SDS011;16347;53.232;6.556;2023-04-01T02:03:50;9.70;;;6.75;;
29358;SDS011;16347;53.232;6.556;2023-04-01T02:06:22;11.27;;;6.95;;
29358;SDS011;16347;53.232;6.556;2023-04-01T02:08:54;11.25;;;6.65;;
29358;SDS011;16347;53.232;6.556;2023-04-01T02:11:26;10.88;;;6.95;;
29358;SDS011;16347;53.232;6.556;2023-04-01T02:13:58;8.13;;;6.05;;
29358;SDS011;16347;53.232;6.556;2023-04-01T02:16:31;9.87;;;6.07;;
29358;SDS011;16347;53.232;6.556;2023-04-01T02:19:03;10.68;;;7.32;;
29358;SDS011;16347;53.232;6.556;2023-04-01T02:21:36;8.82;;;6.72;;
29358;SDS011;16347;53.232;6.556;2023-04-01T02:24:06;10.35;;;7.60;;
29358;SDS011;16347;53.232;6.556;2023-04-01T02:26:38;10.80;;;6.53;;
29358;SDS011;16347;53.232;6.556;2023-04-01T02:29:06;9.05;;;6.57;;
29358;SDS011;16347;53.232;6.556;2023-04-01T02:31:37;8.27;;;6.15;;
29358;SDS011;16347;53.232;6.556;2023-04-01T02:34:05;9.98;;;6.20;;
29358;SDS011;16347;53.232;6.556;2023-04-01T02:36:36;11.95;;;6.85;;
29358;SDS011;16347;53.232;6.556;2023-04-01T02:39:04;10.77;;;6.40;;
29358;SDS011;16347;53.232;6.556;2023-04-01T02:41:38;13.57;;;6.82;;
29358;SDS011;16347;53.232;6.556;2023-04-01T02:44:07;9.82;;;6.82;;
29358;SDS011;16347;53.232;6.556;2023-04-01T02:46:36;9.40;;;6.97;;
29358;SDS011;16347;53.232;6.556;2023-04-01T02:49:04;10.82;;;7.20;;
29358;SDS011;16347;53.232;6.556;2023-04-01T02:51:33;10.88;;;7.15;;
29358;SDS011;16347;53.232;6.556;2023-04-01T02:54:03;12.25;;;7.03;;
29358;SDS011;16347;53.232;6.556;2023-04-01T02:56:31;12.93;;;6.97;;
29358;SDS011;16347;53.232;6.556;2023-04-01T02:58:59;10.80;;;7.10;;
29358;SDS011;16347;53.232;6.556;2023-04-01T03:01:27;10.93;;;7.10;;
29358;SDS011;16347;53.232;6.556;2023-04-01T03:03:55;10.68;;;7.15;;
29358;SDS011;16347;53.232;6.556;2023-04-01T03:06:24;8.55;;;6.95;;
29358;SDS011;16347;53.232;6.556;2023-04-01T03:08:52;13.43;;;8.52;;
29358;SDS011;16347;53.232;6.556;2023-04-01T03:11:22;13.40;;;8.32;;
29358;SDS011;16347;53.232;6.556;2023-04-01T03:13:52;11.85;;;8.73;;
29358;SDS011;16347;53.232;6.556;2023-04-01T03:16:21;12.55;;;9.50;;
29358;SDS011;16347;53.232;6.556;2023-04-01T03:18:50;13.15;;;10.02;;
29358;SDS011;16347;53.232;6.556;2023-04-01T03:21:20;13.75;;;9.95;;
29358;SDS011;16347;53.232;6.556;2023-04-01T03:23:49;14.73;;;8.57;;
29358;SDS011;16347;53.232;6.556;2023-04-01T03:26:18;13.05;;;9.90;;
29358;SDS011;16347;53.232;6.556;2023-04-01T03:28:47;14.65;;;10.52;;
29358;SDS011;16347;53.232;6.556;2023-04-01T03:31:16;15.27;;;10.90;;
29358;SDS011;16347;53.232;6.556;2023-04-01T03:33:50;19.48;;;11.25;;
29358;SDS011;16347;53.232;6.556;2023-04-01T03:36:18;15.63;;;11.32;;
29358;SDS011;16347;53.232;6.556;2023-04-01T03:38:47;17.85;;;11.30;;
29358;SDS011;16347;53.232;6.556;2023-04-01T03:41:22;15.38;;;11.38;;
29358;SDS011;16347;53.232;6.556;2023-04-01T03:43:52;15.15;;;11.63;;
29358;SDS011;16347;53.232;6.556;2023-04-01T03:46:21;15.57;;;10.50;;
29358;SDS011;16347;53.232;6.556;2023-04-01T03:48:49;16.00;;;11.32;;
29358;SDS011;16347;53.232;6.556;2023-04-01T03:51:18;20.83;;;11.60;;
29358;SDS011;16347;53.232;6.556;2023-04-01T03:53:46;16.45;;;10.70;;
29358;SDS011;16347;53.232;6.556;2023-04-01T03:56:15;14.00;;;9.75;;
29358;SDS011;16347;53.232;6.556;2023-04-01T03:58:44;13.98;;;11.05;;
29358;SDS011;16347;53.232;6.556;2023-04-01T04:01:14;14.98;;;11.07;;
29358;SDS011;16347;53.232;6.556;2023-04-01T04:03:44;21.65;;;10.57;;
29358;SDS011;16347;53.232;6.556;2023-04-01T04:06:13;18.20;;;10.48;;
29358;SDS011;16347;53.232;6.556;2023-04-01T04:08:42;16.02;;;11.38;;
29358;SDS011;16347;53.232;6.556;2023-04-01T04:11:12;18.83;;;11.38;;
29358;SDS011;16347;53.232;6.556;2023-04-01T04:13:42;14.63;;;9.68;;
29358;SDS011;16347;53.232;6.556;2023-04-01T04:16:11;15.45;;;10.40;;
29358;SDS011;16347;53.232;6.556;2023-04-01T04:18:45;12.98;;;10.57;;
29358;SDS011;16347;53.232;6.556;2023-04-01T04:21:14;17.13;;;10.45;;
29358;SDS011;16347;53.232;6.556;2023-04-01T04:23:43;17.15;;;11.80;;
29358;SDS011;16347;53.232;6.556;2023-04-01T04:26:14;14.73;;;10.90;;
29358;SDS011;16347;53.232;6.556;2023-04-01T04:28:49;14.82;;;11.25;;
29358;SDS011;16347;53.232;6.556;2023-04-01T04:31:18;15.55;;;10.85;;
29358;SDS011;16347;53.232;6.556;2023-04-01T04:33:50;14.07;;;10.35;;
29358;SDS011;16347;53.232;6.556;2023-04-01T04:36:19;17.83;;;11.35;;
29358;SDS011;16347;53.232;6.556;2023-04-01T04:38:50;16.55;;;10.57;;
29358;SDS011;16347;53.232;6.556;2023-04-01T04:41:18;13.32;;;10.77;;
29358;SDS011;16347;53.232;6.556;2023-04-01T04:43:50;14.85;;;10.98;;
29358;SDS011;16347;53.232;6.556;2023-04-01T04:46:19;14.95;;;10.77;;
29358;SDS011;16347;53.232;6.556;2023-04-01T04:48:53;14.90;;;10.57;;
29358;SDS011;16347;53.232;6.556;2023-04-01T04:51:21;16.75;;;11.93;;
29358;SDS011;16347;53.232;6.556;2023-04-01T04:53:50;15.63;;;11.00;;
29358;SDS011;16347;53.232;6.556;2023-04-01T04:56:27;15.30;;;11.05;;
29358;SDS011;16347;53.232;6.556;2023-04-01T04:59:06;16.05;;;11.40;;
29358;SDS011;16347;53.232;6.556;2023-04-01T05:01:47;14.07;;;11.05;;
29358;SDS011;16347;53.232;6.556;2023-04-01T05:04:17;15.07;;;10.43;;
29358;SDS011;16347;53.232;6.556;2023-04-01T05:06:45;17.15;;;11.25;;
29358;SDS011;16347;53.232;6.556;2023-04-01T05:09:15;16.77;;;11.80;;
29358;SDS011;16347;53.232;6.556;2023-04-01T05:11:44;15.13;;;10.48;;
29358;SDS011;16347;53.232;6.556;2023-04-01T05:14:13;21.45;;;12.50;;
29358;SDS011;16347;53.232;6.556;2023-04-01T05:16:46;19.83;;;13.35;;
29358;SDS011;16347;53.232;6.556;2023-04-01T05:19:17;16.48;;;12.05;;
29358;SDS011;16347;53.232;6.556;2023-04-01T05:21:45;20.10;;;13.30;;
29358;SDS011;16347;53.232;6.556;2023-04-01T05:24:15;19.88;;;13.98;;
29358;SDS011;16347;53.232;6.556;2023-04-01T05:26:43;18.50;;;13.57;;
29358;SDS011;16347;53.232;6.556;2023-04-01T05:29:12;18.25;;;13.18;;
29358;SDS011;16347;53.232;6.556;2023-04-01T05:31:41;18.25;;;13.40;;
29358;SDS011;16347;53.232;6.556;2023-04-01T05:34:09;18.30;;;13.68;;
29358;SDS011;16347;53.232;6.556;2023-04-01T05:36:39;21.48;;;14.15;;
29358;SDS011;16347;53.232;6.556;2023-04-01T05:39:08;19.63;;;13.23;;
29358;SDS011;16347;53.232;6.556;2023-04-01T05:41:37;19.70;;;13.55;;
29358;SDS011;16347;53.232;6.556;2023-04-01T05:44:06;19.55;;;14.25;;
29358;SDS011;16347;53.232;6.556;2023-04-01T05:46:40;18.60;;;13.40;;
29358;SDS011;16347;53.232;6.556;2023-04-01T05:49:19;16.40;;;12.13;;
29358;SDS011;16347;53.232;6.556;2023-04-01T05:51:49;18.42;;;12.93;;
29358;SDS011;16347;53.232;6.556;2023-04-01T05:54:18;18.92;;;13.25;;
29358;SDS011;16347;53.232;6.556;2023-04-01T05:56:47;14.77;;;12.05;;
29358;SDS011;16347;53.232;6.556;2023-04-01T05:59:17;15.43;;;12.07;;
29358;SDS011;16347;53.232;6.556;2023-04-01T06:01:45;17.65;;;11.60;;
29358;SDS011;16347;53.232;6.556;2023-04-01T06:04:14;18.48;;;11.75;;
29358;SDS011;16347;53.232;6.556;2023-04-01T06:06:45;15.57;;;11.85;;
29358;SDS011;16347;53.232;6.556;2023-04-01T06:09:16;15.52;;;10.95;;
29358;SDS011;16347;53.232;6.556;2023-04-01T06:11:56;16.88;;;11.70;;
29358;SDS011;16347;53.232;6.556;2023-04-01T06:14:52;16.55;;;10.23;;
29358;SDS011;16347;53.232;6.556;2023-04-01T06:17:26;20.02;;;11.32;;
29358;SDS011;16347;53.232;6.556;2023-04-01T06:20:08;16.40;;;11.98;;
29358;SDS011;16347;53.232;6.556;2023-04-01T06:22:46;15.93;;;11.90;;
29358;SDS011;16347;53.232;6.556;2023-04-01T06:28:36;17.25;;;12.10;;
29358;SDS011;16347;53.232;6.556;2023-04-01T06:31:29;20.73;;;13.82;;
29358;SDS011;16347;53.232;6.556;2023-04-01T06:34:15;20.40;;;13.13;;
29358;SDS011;16347;53.232;6.556;2023-04-01T06:37:08;22.80;;;15.25;;
29358;SDS011;16347;53.232;6.556;2023-04-01T06:39:57;25.33;;;14.32;;
29358;SDS011;16347;53.232;6.556;2023-04-01T06:42:44;22.30;;;15.82;;
29358;SDS011;16347;53.232;6.556;2023-04-01T06:45:40;24.95;;;15.75;;
29358;SDS011;16347;53.232;6.556;2023-04-01T06:48:45;21.02;;;15.25;;
29358;SDS011;16347;53.232;6.556;2023-04-01T06:51:44;27.08;;;17.52;;
29358;SDS011;16347;53.232;6.556;2023-04-01T06:54:37;21.75;;;16.15;;
29358;SDS011;16347;53.232;6.556;2023-04-01T06:57:28;20.23;;;15.38;;
29358;SDS011;16347;53.232;6.556;2023-04-01T07:00:03;25.55;;;17.25;;
29358;SDS011;16347;53.232;6.556;2023-04-01T07:02:41;25.00;;;17.38;;
29358;SDS011;16347;53.232;6.556;2023-04-01T07:05:21;23.65;;;17.35;;
29358;SDS011;16347;53.232;6.556;2023-04-01T07:07:52;23.75;;;17.65;;
29358;SDS011;16347;53.232;6.556;2023-04-01T07:10:28;30.20;;;18.73;;
29358;SDS011;16347;53.232;6.556;2023-04-01T07:13:23;29.10;;;17.33;;
29358;SDS011;16347;53.232;6.556;2023-04-01T07:16:03;23.17;;;16.70;;
29358;SDS011;16347;53.232;6.556;2023-04-01T07:18:41;22.27;;;16.55;;
29358;SDS011;16347;53.232;6.556;2023-04-01T07:21:18;26.35;;;18.65;;
29358;SDS011;16347;53.232;6.556;2023-04-01T07:23:52;28.88;;;16.88;;
29358;SDS011;16347;53.232;6.556;2023-04-01T07:26:34;26.35;;;17.75;;
29358;SDS011;16347;53.232;6.556;2023-04-01T07:29:05;22.25;;;16.90;;
29358;SDS011;16347;53.232;6.556;2023-04-01T07:31:49;24.65;;;16.83;;
29358;SDS011;16347;53.232;6.556;2023-04-01T07:34:39;22.85;;;16.58;;
29358;SDS011;16347;53.232;6.556;2023-04-01T07:37:17;29.65;;;18.55;;
29358;SDS011;16347;53.232;6.556;2023-04-01T07:39:52;24.13;;;17.10;;
29358;SDS011;16347;53.232;6.556;2023-04-01T07:42:35;23.67;;;17.05;;
29358;SDS011;16347;53.232;6.556;2023-04-01T07:45:18;25.80;;;17.67;;
29358;SDS011;16347;53.232;6.556;2023-04-01T07:50:46;26.92;;;17.48;;
29358;SDS011;16347;53.232;6.556;2023-04-01T07:53:24;23.80;;;16.73;;
29358;SDS011;16347;53.232;6.556;2023-04-01T07:56:03;23.20;;;17.42;;
29358;SDS011;16347;53.232;6.556;2023-04-01T07:58:44;27.92;;;17.63;;
29358;SDS011;16347;53.232;6.556;2023-04-01T08:01:45;23.38;;;16.08;;
29358;SDS011;16347;53.232;6.556;2023-04-01T08:04:24;21.77;;;14.65;;
29358;SDS011;16347;53.232;6.556;2023-04-01T08:07:05;20.67;;;15.05;;
29358;SDS011;16347;53.232;6.556;2023-04-01T08:09:45;20.10;;;14.45;;
29358;SDS011;16347;53.232;6.556;2023-04-01T08:12:45;21.40;;;14.20;;
29358;SDS011;16347;53.232;6.556;2023-04-01T08:15:41;18.10;;;13.93;;
29358;SDS011;16347;53.232;6.556;2023-04-01T08:18:46;18.95;;;13.00;;
29358;SDS011;16347;53.232;6.556;2023-04-01T08:21:25;18.52;;;12.57;;
29358;SDS011;16347;53.232;6.556;2023-04-01T08:23:57;21.17;;;13.65;;
29358;SDS011;16347;53.232;6.556;2023-04-01T08:26:32;18.85;;;13.55;;
29358;SDS011;16347;53.232;6.556;2023-04-01T08:29:09;20.98;;;14.05;;
29358;SDS011;16347;53.232;6.556;2023-04-01T08:31:43;21.63;;;15.65;;
29358;SDS011;16347;53.232;6.556;2023-04-01T08:34:19;25.60;;;14.13;;
29358;SDS011;16347;53.232;6.556;2023-04-01T08:36:53;21.93;;;14.87;;
29358;SDS011;16347;53.232;6.556;2023-04-01T08:39:29;22.02;;;14.98;;
29358;SDS011;16347;53.232;6.556;2023-04-01T08:45:29;19.40;;;13.50;;
29358;SDS011;16347;53.232;6.556;2023-04-01T08:48:19;13.85;;;9.20;;
29358;SDS011;16347;53.232;6.556;2023-04-01T08:51:42;14.07;;;9.52;;
29358;SDS011;16347;53.232;6.556;2023-04-01T08:54:34;8.32;;;6.30;;
29358;SDS011;16347;53.232;6.556;2023-04-01T08:57:21;9.95;;;6.07;;
29358;SDS011;16347;53.232;6.556;2023-04-01T09:00:29;9.43;;;5.75;;
29358;SDS011;16347;53.232;6.556;2023-04-01T09:03:23;8.40;;;5.35;;
29358;SDS011;16347;53.232;6.556;2023-04-01T09:09:02;13.45;;;6.10;;
29358;SDS011;16347;53.232;6.556;2023-04-01T09:12:00;7.65;;;5.40;;
29358;SDS011;16347;53.232;6.556;2023-04-01T09:14:47;9.25;;;5.47;;
29358;SDS011;16347;53.232;6.556;2023-04-01T09:20:46;7.78;;;4.53;;
29358;SDS011;16347;53.232;6.556;2023-04-01T09:26:37;12.60;;;4.85;;
29358;SDS011;16347;53.232;6.556;2023-04-01T09:29:30;5.15;;;3.40;;
29358;SDS011;16347;53.232;6.556;2023-04-01T09:32:32;5.65;;;2.97;;
29358;SDS011;16347;53.232;6.556;2023-04-01T09:35:24;4.43;;;2.90;;
29358;SDS011;16347;53.232;6.556;2023-04-01T09:38:02;4.10;;;2.78;;
29358;SDS011;16347;53.232;6.556;2023-04-01T09:40:42;6.72;;;3.42;;
29358;SDS011;16347;53.232;6.556;2023-04-01T09:43:32;5.57;;;2.38;;
29358;SDS011;16347;53.232;6.556;2023-04-01T09:46:19;6.65;;;2.78;;
29358;SDS011;16347;53.232;6.556;2023-04-01T09:52:15;6.63;;;3.25;;
29358;SDS011;16347;53.232;6.556;2023-04-01T10:04:40;5.35;;;3.25;;
29358;SDS011;16347;53.232;6.556;2023-04-01T10:10:46;5.75;;;2.40;;
29358;SDS011;16347;53.232;6.556;2023-04-01T10:20:12;6.78;;;3.20;;
29358;SDS011;16347;53.232;6.556;2023-04-01T10:23:00;5.28;;;2.42;;
29358;SDS011;16347;53.232;6.556;2023-04-01T10:25:53;8.48;;;3.65;;
29358;SDS011;16347;53.232;6.556;2023-04-01T10:34:55;7.70;;;5.07;;
29358;SDS011;16347;53.232;6.556;2023-04-01T10:37:51;4.15;;;2.58;;
29358;SDS011;16347;53.232;6.556;2023-04-01T10:40:38;4.78;;;2.47;;
29358;SDS011;16347;53.232;6.556;2023-04-01T10:43:55;2.03;;;1.80;;
29358;SDS011;16347;53.232;6.556;2023-04-01T10:49:48;5.95;;;3.85;;
29358;SDS011;16347;53.232;6.556;2023-04-01T10:52:44;4.13;;;2.17;;
29358;SDS011;16347;53.232;6.556;2023-04-01T11:06:50;6.13;;;2.35;;
29358;SDS011;16347;53.232;6.556;2023-04-01T11:09:57;8.38;;;2.45;;
29358;SDS011;16347;53.232;6.556;2023-04-01T11:13:06;3.65;;;2.42;;
29358;SDS011;16347;53.232;6.556;2023-04-01T11:19:02;6.95;;;2.95;;
29358;SDS011;16347;53.232;6.556;2023-04-01T11:22:16;4.03;;;2.58;;
29358;SDS011;16347;53.232;6.556;2023-04-01T11:25:09;6.30;;;2.25;;
29358;SDS011;16347;53.232;6.556;2023-04-01T11:28:39;3.05;;;2.22;;
29358;SDS011;16347;53.232;6.556;2023-04-01T11:31:27;3.63;;;2.13;;
29358;SDS011;16347;53.232;6.556;2023-04-01T11:37:21;3.28;;;1.90;;
29358;SDS011;16347;53.232;6.556;2023-04-01T11:40:26;5.97;;;1.77;;
29358;SDS011;16347;53.232;6.556;2023-04-01T11:43:28;5.10;;;2.00;;
29358;SDS011;16347;53.232;6.556;2023-04-01T11:46:25;9.30;;;4.82;;
29358;SDS011;16347;53.232;6.556;2023-04-01T11:49:03;8.63;;;4.57;;
29358;SDS011;16347;53.232;6.556;2023-04-01T11:51:59;8.60;;;3.67;;
29358;SDS011;16347;53.232;6.556;2023-04-01T11:54:40;13.60;;;6.13;;
29358;SDS011;16347;53.232;6.556;2023-04-01T11:57:38;11.00;;;4.63;;
29358;SDS011;16347;53.232;6.556;2023-04-01T12:03:10;4.25;;;1.83;;
29358;SDS011;16347;53.232;6.556;2023-04-01T12:08:23;3.40;;;1.55;;
29358;SDS011;16347;53.232;6.556;2023-04-01T12:10:59;1.40;;;1.30;;
29358;SDS011;16347;53.232;6.556;2023-04-01T12:13:45;2.20;;;1.60;;
29358;SDS011;16347;53.232;6.556;2023-04-01T12:16:36;4.00;;;1.50;;
29358;SDS011;16347;53.232;6.556;2023-04-01T12:19:16;2.72;;;1.95;;
29358;SDS011;16347;53.232;6.556;2023-04-01T12:21:55;5.28;;;1.70;;
29358;SDS011;16347;53.232;6.556;2023-04-01T12:24:43;4.95;;;1.92;;
29358;SDS011;16347;53.232;6.556;2023-04-01T12:30:30;4.72;;;1.73;;
29358;SDS011;16347;53.232;6.556;2023-04-01T12:33:18;4.60;;;1.83;;
29358;SDS011;16347;53.232;6.556;2023-04-01T12:36:00;3.78;;;1.83;;
29358;SDS011;16347;53.232;6.556;2023-04-01T12:38:41;2.55;;;1.70;;
29358;SDS011;16347;53.232;6.556;2023-04-01T12:41:17;2.88;;;1.40;;
29358;SDS011;16347;53.232;6.556;2023-04-01T12:44:07;3.30;;;2.10;;
29358;SDS011;16347;53.232;6.556;2023-04-01T12:47:00;2.03;;;1.23;;
29358;SDS011;16347;53.232;6.556;2023-04-01T12:49:52;1.65;;;1.13;;
29358;SDS011;16347;53.232;6.556;2023-04-01T12:52:32;7.40;;;2.00;;
29358;SDS011;16347;53.232;6.556;2023-04-01T13:01:22;6.38;;;2.25;;
29358;SDS011;16347;53.232;6.556;2023-04-01T13:04:08;2.90;;;2.15;;
29358;SDS011;16347;53.232;6.556;2023-04-01T13:07:06;2.65;;;1.77;;
29358;SDS011;16347;53.232;6.556;2023-04-01T13:09:45;4.47;;;2.10;;
29358;SDS011;16347;53.232;6.556;2023-04-01T13:12:27;2.55;;;1.52;;
29358;SDS011;16347;53.232;6.556;2023-04-01T13:15:14;1.50;;;1.40;;
29358;SDS011;16347;53.232;6.556;2023-04-01T13:17:53;1.88;;;1.40;;
29358;SDS011;16347;53.232;6.556;2023-04-01T13:20:38;4.07;;;1.90;;
29358;SDS011;16347;53.232;6.556;2023-04-01T13:26:11;5.10;;;1.55;;
29358;SDS011;16347;53.232;6.556;2023-04-01T13:28:47;3.95;;;1.85;;
29358;SDS011;16347;53.232;6.556;2023-04-01T13:31:34;3.75;;;2.10;;
29358;SDS011;16347;53.232;6.556;2023-04-01T13:34:25;3.90;;;1.27;;
29358;SDS011;16347;53.232;6.556;2023-04-01T13:37:08;3.50;;;1.40;;
29358;SDS011;16347;53.232;6.556;2023-04-01T13:40:02;2.70;;;1.52;;
29358;SDS011;16347;53.232;6.556;2023-04-01T13:45:14;4.50;;;1.70;;
29358;SDS011;16347;53.232;6.556;2023-04-01T13:47:50;6.90;;;1.87;;
29358;SDS011;16347;53.232;6.556;2023-04-01T13:50:44;3.35;;;1.40;;
29358;SDS011;16347;53.232;6.556;2023-04-01T13:56:28;1.90;;;1.30;;
29358;SDS011;16347;53.232;6.556;2023-04-01T13:59:03;3.10;;;1.23;;
29358;SDS011;16347;53.232;6.556;2023-04-01T14:01:46;2.85;;;1.30;;
29358;SDS011;16347;53.232;6.556;2023-04-01T14:04:24;3.28;;;1.17;;
29358;SDS011;16347;53.232;6.556;2023-04-01T14:07:16;5.07;;;1.67;;
29358;SDS011;16347;53.232;6.556;2023-04-01T14:09:58;2.95;;;1.48;;
29358;SDS011;16347;53.232;6.556;2023-04-01T14:12:38;1.50;;;1.20;;
29358;SDS011;16347;53.232;6.556;2023-04-01T14:15:16;3.60;;;1.25;;
29358;SDS011;16347;53.232;6.556;2023-04-01T14:18:02;2.00;;;1.02;;
29358;SDS011;16347;53.232;6.556;2023-04-01T14:20:45;2.75;;;1.33;;
29358;SDS011;16347;53.232;6.556;2023-04-01T14:26:37;3.45;;;1.52;;
29358;SDS011;16347;53.232;6.556;2023-04-01T14:29:31;4.50;;;1.60;;
29358;SDS011;16347;53.232;6.556;2023-04-01T14:32:11;3.35;;;1.48;;
29358;SDS011;16347;53.232;6.556;2023-04-01T14:34:47;3.22;;;1.27;;
29358;SDS011;16347;53.232;6.556;2023-04-01T14:40:27;7.07;;;1.30;;
29358;SDS011;16347;53.232;6.556;2023-04-01T14:43:06;3.53;;;1.42;;
29358;SDS011;16347;53.232;6.556;2023-04-01T14:46:06;2.17;;;1.35;;
29358;SDS011;16347;53.232;6.556;2023-04-01T14:48:49;2.13;;;1.10;;
29358;SDS011;16347;53.232;6.556;2023-04-01T14:51:22;2.70;;;1.27;;
29358;SDS011;16347;53.232;6.556;2023-04-01T14:53:58;3.30;;;1.45;;
29358;SDS011;16347;53.232;6.556;2023-04-01T14:56:35;3.67;;;1.55;;
29358;SDS011;16347;53.232;6.556;2023-04-01T14:59:07;6.97;;;1.63;;
29358;SDS011;16347;53.232;6.556;2023-04-01T15:01:40;4.07;;;2.10;;
29358;SDS011;16347;53.232;6.556;2023-04-01T15:04:20;2.03;;;1.42;;
29358;SDS011;16347;53.232;6.556;2023-04-01T15:07:11;5.55;;;2.78;;
29358;SDS011;16347;53.232;6.556;2023-04-01T15:10:04;5.32;;;2.63;;
29358;SDS011;16347;53.232;6.556;2023-04-01T15:12:48;7.80;;;2.00;;
29358;SDS011;16347;53.232;6.556;2023-04-01T15:15:29;3.90;;;2.42;;
29358;SDS011;16347;53.232;6.556;2023-04-01T15:18:09;3.53;;;2.13;;
29358;SDS011;16347;53.232;6.556;2023-04-01T15:20:51;5.35;;;2.55;;
29358;SDS011;16347;53.232;6.556;2023-04-01T15:23:34;5.35;;;2.47;;
29358;SDS011;16347;53.232;6.556;2023-04-01T15:26:13;8.73;;;2.97;;
29358;SDS011;16347;53.232;6.556;2023-04-01T15:28:57;5.05;;;2.20;;
29358;SDS011;16347;53.232;6.556;2023-04-01T15:31:42;5.45;;;2.35;;
29358;SDS011;16347;53.232;6.556;2023-04-01T15:34:21;4.38;;;2.30;;
29358;SDS011;16347;53.232;6.556;2023-04-01T15:36:57;5.25;;;2.47;;
29358;SDS011;16347;53.232;6.556;2023-04-01T15:39:36;4.72;;;2.42;;
29358;SDS011;16347;53.232;6.556;2023-04-01T15:42:21;9.57;;;3.17;;
29358;SDS011;16347;53.232;6.556;2023-04-01T15:45:16;5.00;;;2.95;;
29358;SDS011;16347;53.232;6.556;2023-04-01T15:47:53;9.23;;;2.83;;
29358;SDS011;16347;53.232;6.556;2023-04-01T15:50:34;6.50;;;3.38;;
29358;SDS011;16347;53.232;6.556;2023-04-01T15:56:14;8.75;;;3.40;;
29358;SDS011;16347;53.232;6.556;2023-04-01T15:58:54;9.73;;;3.42;;
29358;SDS011;16347;53.232;6.556;2023-04-01T16:01:35;7.35;;;3.45;;
29358;SDS011;16347;53.232;6.556;2023-04-01T16:04:16;7.97;;;3.65;;
29358;SDS011;16347;53.232;6.556;2023-04-01T16:07:01;12.73;;;3.92;;
29358;SDS011;16347;53.232;6.556;2023-04-01T16:09:39;11.20;;;3.40;;
29358;SDS011;16347;53.232;6.556;2023-04-01T16:12:22;8.23;;;3.53;;
29358;SDS011;16347;53.232;6.556;2023-04-01T16:15:08;8.35;;;3.45;;
29358;SDS011;16347;53.232;6.556;2023-04-01T16:18:03;8.57;;;3.72;;
29358;SDS011;16347;53.232;6.556;2023-04-01T16:20:55;8.38;;;3.70;;
29358;SDS011;16347;53.232;6.556;2023-04-01T16:23:33;10.45;;;4.35;;
29358;SDS011;16347;53.232;6.556;2023-04-01T16:26:06;8.80;;;3.83;;
29358;SDS011;16347;53.232;6.556;2023-04-01T16:28:38;6.63;;;3.58;;
29358;SDS011;16347;53.232;6.556;2023-04-01T16:31:23;12.40;;;3.95;;
29358;SDS011;16347;53.232;6.556;2023-04-01T16:33:58;9.98;;;3.75;;
29358;SDS011;16347;53.232;6.556;2023-04-01T16:36:33;12.23;;;4.07;;
29358;SDS011;16347;53.232;6.556;2023-04-01T16:39:22;11.45;;;4.28;;
29358;SDS011;16347;53.232;6.556;2023-04-01T16:42:09;10.05;;;4.05;;
29358;SDS011;16347;53.232;6.556;2023-04-01T16:44:48;9.57;;;4.03;;
29358;SDS011;16347;53.232;6.556;2023-04-01T16:47:23;7.75;;;3.80;;
29358;SDS011;16347;53.232;6.556;2023-04-01T16:49:58;11.70;;;4.63;;
29358;SDS011;16347;53.232;6.556;2023-04-01T16:52:36;12.13;;;4.57;;
29358;SDS011;16347;53.232;6.556;2023-04-01T16:55:17;11.18;;;4.60;;
29358;SDS011;16347;53.232;6.556;2023-04-01T16:57:48;9.80;;;4.43;;
29358;SDS011;16347;53.232;6.556;2023-04-01T17:00:22;14.13;;;4.40;;
29358;SDS011;16347;53.232;6.556;2023-04-01T17:02:57;10.07;;;3.78;;
29358;SDS011;16347;53.232;6.556;2023-04-01T17:05:38;9.98;;;4.53;;
29358;SDS011;16347;53.232;6.556;2023-04-01T17:08:10;11.27;;;4.78;;
29358;SDS011;16347;53.232;6.556;2023-04-01T17:10:52;10.25;;;4.40;;
29358;SDS011;16347;53.232;6.556;2023-04-01T17:13:29;7.18;;;4.20;;
29358;SDS011;16347;53.232;6.556;2023-04-01T17:16:10;9.60;;;4.20;;
29358;SDS011;16347;53.232;6.556;2023-04-01T17:18:49;10.55;;;4.90;;
29358;SDS011;16347;53.232;6.556;2023-04-01T17:21:29;12.45;;;4.25;;
29358;SDS011;16347;53.232;6.556;2023-04-01T17:24:05;8.35;;;4.03;;
29358;SDS011;16347;53.232;6.556;2023-04-01T17:26:45;12.93;;;4.55;;
29358;SDS011;16347;53.232;6.556;2023-04-01T17:29:18;10.55;;;4.25;;